sensor_id;sensor_type;location;lat;lon;timestamp;pressure;altitude;pressure_sealevel;temperature;humidity
63190;BME280;49286;44.460;26.114;2023-05-10T00:01:10;100976.84;;;7.72;100.00
63190;BME280;49286;44.460;26.114;2023-05-10T00:03:36;101074.97;;;7.98;100.00
63190;BME280;49286;44.460;26.114;2023-05-10T00:06:01;100952.25;;;7.19;100.00
63190;BME280;49286;44.460;26.114;2023-05-10T00:08:27;101041.25;;;7.70;100.00
63190;BME280;49286;44.460;26.114;2023-05-10T00:10:53;101058.13;;;7.86;100.00
63190;BME280;49286;44.460;26.114;2023-05-10T00:13:18;100943.25;;;7.07;100.00
63190;BME280;49286;44.460;26.114;2023-05-10T00:15:44;101047.44;;;7.73;100.00
63190;BME280;49286;44.460;26.114;2023-05-10T00:18:09;101006.00;;;7.51;100.00
63190;BME280;49286;44.460;26.114;2023-05-10T00:20:35;101016.94;;;7.74;100.00
63190;BME280;49286;44.460;26.114;2023-05-10T00:23:00;101008.72;;;7.54;100.00
63190;BME280;49286;44.460;26.114;2023-05-10T00:25:26;101003.28;;;7.45;100.00
63190;BME280;49286;44.460;26.114;2023-05-10T00:27:51;100994.22;;;7.30;100.00
63190;BME280;49286;44.460;26.114;2023-05-10T00:30:17;101012.72;;;7.39;100.00
63190;BME280;49286;44.460;26.114;2023-05-10T00:32:43;101034.06;;;7.22;100.00
63190;BME280;49286;44.460;26.114;2023-05-10T00:35:08;100983.19;;;7.04;100.00
63190;BME280;49286;44.460;26.114;2023-05-10T00:37:34;101009.63;;;7.18;100.00
63190;BME280;49286;44.460;26.114;2023-05-10T00:40:00;100978.91;;;7.06;100.00
63190;BME280;49286;44.460;26.114;2023-05-10T00:42:25;101012.44;;;7.27;100.00
63190;BME280;49286;44.460;26.114;2023-05-10T00:44:51;100990.78;;;6.93;100.00
63190;BME280;49286;44.460;26.114;2023-05-10T00:47:16;100933.44;;;6.59;100.00
63190;BME280;49286;44.460;26.114;2023-05-10T00:49:43;100870.00;;;6.25;100.00
63190;BME280;49286;44.460;26.114;2023-05-10T00:52:09;100941.53;;;6.71;100.00
63190;BME280;49286;44.460;26.114;2023-05-10T00:54:35;100960.78;;;6.76;100.00
63190;BME280;49286;44.460;26.114;2023-05-10T00:57:00;100865.53;;;6.54;100.00
63190;BME280;49286;44.460;26.114;2023-05-10T00:59:26;100997.91;;;7.02;100.00
63190;BME280;49286;44.460;26.114;2023-05-10T01:01:52;100893.00;;;6.41;100.00
63190;BME280;49286;44.460;26.114;2023-05-10T01:04:18;100841.00;;;6.09;100.00
63190;BME280;49286;44.460;26.114;2023-05-10T01:06:46;100864.03;;;6.29;100.00
63190;BME280;49286;44.460;26.114;2023-05-10T01:09:12;100873.59;;;6.28;100.00
63190;BME280;49286;44.460;26.114;2023-05-10T01:11:39;100977.53;;;6.86;100.00
63190;BME280;49286;44.460;26.114;2023-05-10T01:14:05;100968.13;;;6.92;100.00
63190;BME280;49286;44.460;26.114;2023-05-10T01:16:40;100943.22;;;6.67;100.00
63190;BME280;49286;44.460;26.114;2023-05-10T01:19:26;100971.50;;;6.87;100.00
63190;BME280;49286;44.460;26.114;2023-05-10T01:35:25;100964.78;;;7.36;100.00
63190;BME280;49286;44.460;26.114;2023-05-10T01:38:22;100954.59;;;7.48;100.00
63190;BME280;49286;44.460;26.114;2023-05-10T01:41:16;100854.59;;;6.70;100.00
63190;BME280;49286;44.460;26.114;2023-05-10T01:46:23;100842.38;;;6.30;100.00
63190;BME280;49286;44.460;26.114;2023-05-10T01:48:53;100933.16;;;6.84;100.00
63190;BME280;49286;44.460;26.114;2023-05-10T01:51:23;100897.97;;;6.65;100.00
63190;BME280;49286;44.460;26.114;2023-05-10T01:53:54;100842.97;;;6.20;100.00
63190;BME280;49286;44.460;26.114;2023-05-10T01:56:24;100961.44;;;7.04;100.00
63190;BME280;49286;44.460;26.114;2023-05-10T01:58:52;100961.72;;;7.16;100.00
63190;BME280;49286;44.460;26.114;2023-05-10T02:01:20;100883.34;;;6.72;100.00
63190;BME280;49286;44.460;26.114;2023-05-10T02:03:47;100948.41;;;7.04;100.00
63190;BME280;49286;44.460;26.114;2023-05-10T02:06:16;100982.69;;;7.21;100.00
63190;BME280;49286;44.460;26.114;2023-05-10T02:08:45;100839.13;;;6.40;100.00
63190;BME280;49286;44.460;26.114;2023-05-10T02:11:13;100829.28;;;6.28;100.00
63190;BME280;49286;44.460;26.114;2023-05-10T02:13:39;100834.72;;;6.38;100.00
63190;BME280;49286;44.460;26.114;2023-05-10T02:16:16;100969.22;;;7.02;100.00
63190;BME280;49286;44.460;26.114;2023-05-10T02:18:43;100971.94;;;7.07;100.00
63190;BME280;49286;44.460;26.114;2023-05-10T02:21:10;100827.50;;;6.26;100.00
63190;BME280;49286;44.460;26.114;2023-05-10T02:23:36;100933.94;;;6.80;100.00
63190;BME280;49286;44.460;26.114;2023-05-10T02:26:02;100938.06;;;7.08;100.00
63190;BME280;49286;44.460;26.114;2023-05-10T02:28:31;100955.56;;;7.12;100.00
63190;BME280;49286;44.460;26.114;2023-05-10T02:30:58;100821.25;;;6.55;100.00
63190;BME280;49286;44.460;26.114;2023-05-10T02:33:24;100970.63;;;7.24;100.00
63190;BME280;49286;44.460;26.114;2023-05-10T02:35:50;100843.69;;;6.49;100.00
63190;BME280;49286;44.460;26.114;2023-05-10T02:38:19;100855.72;;;6.44;100.00
63190;BME280;49286;44.460;26.114;2023-05-10T02:40:47;100866.69;;;6.67;100.00
63190;BME280;49286;44.460;26.114;2023-05-10T02:43:14;100908.38;;;7.03;100.00
63190;BME280;49286;44.460;26.114;2023-05-10T02:45:42;100800.41;;;6.55;100.00
63190;BME280;49286;44.460;26.114;2023-05-10T02:48:08;100817.34;;;6.38;100.00
63190;BME280;49286;44.460;26.114;2023-05-10T02:50:35;100907.00;;;6.81;100.00
63190;BME280;49286;44.460;26.114;2023-05-10T02:53:09;100841.78;;;6.43;100.00
63190;BME280;49286;44.460;26.114;2023-05-10T02:55:40;100805.78;;;6.27;100.00
63190;BME280;49286;44.460;26.114;2023-05-10T02:58:06;100905.53;;;6.92;100.00
63190;BME280;49286;44.460;26.114;2023-05-10T03:00:32;100955.47;;;7.49;100.00
63190;BME280;49286;44.460;26.114;2023-05-10T03:02:58;100886.34;;;6.90;100.00
63190;BME280;49286;44.460;26.114;2023-05-10T03:05:23;100944.06;;;7.44;100.00
63190;BME280;49286;44.460;26.114;2023-05-10T03:07:49;100848.56;;;6.73;100.00
63190;BME280;49286;44.460;26.114;2023-05-10T03:10:16;100930.69;;;7.28;100.00
63190;BME280;49286;44.460;26.114;2023-05-10T03:13:00;100960.59;;;7.43;100.00
63190;BME280;49286;44.460;26.114;2023-05-10T03:18:54;100966.88;;;7.95;100.00
63190;BME280;49286;44.460;26.114;2023-05-10T03:21:22;100844.66;;;6.92;100.00
63190;BME280;49286;44.460;26.114;2023-05-10T03:26:24;100832.47;;;7.33;100.00
63190;BME280;49286;44.460;26.114;2023-05-10T03:28:51;100929.75;;;7.67;100.00
63190;BME280;49286;44.460;26.114;2023-05-10T03:31:18;100874.09;;;7.27;100.00
63190;BME280;49286;44.460;26.114;2023-05-10T03:33:50;100958.56;;;7.72;100.00
63190;BME280;49286;44.460;26.114;2023-05-10T03:36:17;100875.28;;;7.01;100.00
63190;BME280;49286;44.460;26.114;2023-05-10T03:38:43;100992.81;;;7.86;100.00
63190;BME280;49286;44.460;26.114;2023-05-10T03:41:08;100870.84;;;7.39;100.00
63190;BME280;49286;44.460;26.114;2023-05-10T03:43:34;100896.56;;;7.61;100.00
63190;BME280;49286;44.460;26.114;2023-05-10T03:46:04;100906.22;;;7.67;100.00
63190;BME280;49286;44.460;26.114;2023-05-10T03:48:31;100992.59;;;8.19;100.00
63190;BME280;49286;44.460;26.114;2023-05-10T03:50:57;101010.59;;;8.48;100.00
63190;BME280;49286;44.460;26.114;2023-05-10T03:53:22;100898.63;;;7.78;100.00
63190;BME280;49286;44.460;26.114;2023-05-10T03:55:48;100995.72;;;8.45;100.00
63190;BME280;49286;44.460;26.114;2023-05-10T03:58:13;100996.75;;;8.53;100.00
63190;BME280;49286;44.460;26.114;2023-05-10T04:00:39;101025.84;;;8.73;100.00
63190;BME280;49286;44.460;26.114;2023-05-10T04:03:09;101006.66;;;8.73;100.00
63190;BME280;49286;44.460;26.114;2023-05-10T04:05:35;100948.28;;;8.25;100.00
63190;BME280;49286;44.460;26.114;2023-05-10T04:08:01;101031.41;;;8.92;100.00
63190;BME280;49286;44.460;26.114;2023-05-10T04:10:26;101036.78;;;8.99;100.00
63190;BME280;49286;44.460;26.114;2023-05-10T04:12:52;100933.25;;;8.13;100.00
63190;BME280;49286;44.460;26.114;2023-05-10T04:15:17;101067.09;;;8.85;100.00
63190;BME280;49286;44.460;26.114;2023-05-10T04:17:43;101068.25;;;9.02;100.00
63190;BME280;49286;44.460;26.114;2023-05-10T04:20:08;100916.03;;;7.77;100.00
63190;BME280;49286;44.460;26.114;2023-05-10T04:22:34;101007.28;;;8.58;100.00
63190;BME280;49286;44.460;26.114;2023-05-10T04:25:00;101050.84;;;8.56;100.00
63190;BME280;49286;44.460;26.114;2023-05-10T04:27:25;100986.44;;;8.15;100.00
63190;BME280;49286;44.460;26.114;2023-05-10T04:29:50;101003.03;;;8.19;100.00
63190;BME280;49286;44.460;26.114;2023-05-10T04:32:16;100971.88;;;8.30;100.00
63190;BME280;49286;44.460;26.114;2023-05-10T04:34:43;101102.66;;;9.27;100.00
63190;BME280;49286;44.460;26.114;2023-05-10T04:37:08;101109.66;;;9.25;100.00
63190;BME280;49286;44.460;26.114;2023-05-10T04:39:34;101069.31;;;9.15;100.00
63190;BME280;49286;44.460;26.114;2023-05-10T04:42:00;101112.56;;;9.45;100.00
63190;BME280;49286;44.460;26.114;2023-05-10T04:44:26;100990.81;;;8.62;100.00
63190;BME280;49286;44.460;26.114;2023-05-10T04:46:51;101108.63;;;9.17;100.00
63190;BME280;49286;44.460;26.114;2023-05-10T04:49:16;101028.56;;;8.76;100.00
63190;BME280;49286;44.460;26.114;2023-05-10T04:51:43;101139.75;;;9.51;100.00
63190;BME280;49286;44.460;26.114;2023-05-10T04:54:08;101109.19;;;9.50;100.00
63190;BME280;49286;44.460;26.114;2023-05-10T04:56:34;100999.16;;;8.93;100.00
63190;BME280;49286;44.460;26.114;2023-05-10T04:58:59;101137.22;;;9.56;100.00
63190;BME280;49286;44.460;26.114;2023-05-10T05:01:25;101131.31;;;9.69;100.00
63190;BME280;49286;44.460;26.114;2023-05-10T05:03:50;101030.13;;;8.68;100.00
63190;BME280;49286;44.460;26.114;2023-05-10T05:06:18;101124.69;;;9.37;100.00
63190;BME280;49286;44.460;26.114;2023-05-10T05:08:46;101143.66;;;9.78;100.00
63190;BME280;49286;44.460;26.114;2023-05-10T05:11:12;101092.28;;;9.30;100.00
63190;BME280;49286;44.460;26.114;2023-05-10T05:13:37;101037.53;;;8.92;100.00
63190;BME280;49286;44.460;26.114;2023-05-10T05:16:03;101142.50;;;9.58;100.00
63190;BME280;49286;44.460;26.114;2023-05-10T05:18:28;101110.22;;;9.60;100.00
63190;BME280;49286;44.460;26.114;2023-05-10T05:20:54;101136.59;;;9.72;100.00
63190;BME280;49286;44.460;26.114;2023-05-10T05:23:19;101139.44;;;9.89;100.00
63190;BME280;49286;44.460;26.114;2023-05-10T05:25:46;101170.44;;;10.17;100.00
63190;BME280;49286;44.460;26.114;2023-05-10T05:28:12;101149.19;;;9.98;100.00
63190;BME280;49286;44.460;26.114;2023-05-10T05:30:37;101186.31;;;10.27;100.00
63190;BME280;49286;44.460;26.114;2023-05-10T05:33:03;101173.97;;;10.19;100.00
63190;BME280;49286;44.460;26.114;2023-05-10T05:35:28;101173.88;;;10.12;100.00
63190;BME280;49286;44.460;26.114;2023-05-10T05:37:54;101170.78;;;10.40;100.00
63190;BME280;49286;44.460;26.114;2023-05-10T05:40:21;101074.75;;;9.87;100.00
63190;BME280;49286;44.460;26.114;2023-05-10T05:42:46;101063.88;;;9.59;100.00
63190;BME280;49286;44.460;26.114;2023-05-10T05:45:11;101164.81;;;10.51;100.00
63190;BME280;49286;44.460;26.114;2023-05-10T05:47:40;101189.56;;;10.11;100.00
63190;BME280;49286;44.460;26.114;2023-05-10T05:50:06;101159.63;;;10.56;100.00
63190;BME280;49286;44.460;26.114;2023-05-10T05:52:31;101042.66;;;10.05;100.00
63190;BME280;49286;44.460;26.114;2023-05-10T05:54:57;101071.06;;;9.72;100.00
63190;BME280;49286;44.460;26.114;2023-05-10T05:57:22;101076.47;;;9.83;100.00
63190;BME280;49286;44.460;26.114;2023-05-10T05:59:48;101195.81;;;10.86;100.00
63190;BME280;49286;44.460;26.114;2023-05-10T06:02:13;101108.59;;;10.34;100.00
63190;BME280;49286;44.460;26.114;2023-05-10T06:04:39;101096.13;;;10.18;100.00
63190;BME280;49286;44.460;26.114;2023-05-10T06:07:05;101213.69;;;11.18;100.00
63190;BME280;49286;44.460;26.114;2023-05-10T06:09:30;101174.34;;;11.26;100.00
63190;BME280;49286;44.460;26.114;2023-05-10T06:11:55;101199.13;;;11.54;100.00
63190;BME280;49286;44.460;26.114;2023-05-10T06:14:21;101197.50;;;11.67;100.00
63190;BME280;49286;44.460;26.114;2023-05-10T06:16:47;101105.19;;;11.27;100.00
63190;BME280;49286;44.460;26.114;2023-05-10T06:19:12;101231.72;;;11.74;100.00
63190;BME280;49286;44.460;26.114;2023-05-10T06:21:38;101243.91;;;11.65;100.00
63190;BME280;49286;44.460;26.114;2023-05-10T06:24:03;101216.75;;;11.62;100.00
63190;BME280;49286;44.460;26.114;2023-05-10T06:26:30;101205.59;;;11.90;100.00
63190;BME280;49286;44.460;26.114;2023-05-10T06:28:56;101201.13;;;11.81;100.00
63190;BME280;49286;44.460;26.114;2023-05-10T06:31:21;101222.38;;;12.10;100.00
63190;BME280;49286;44.460;26.114;2023-05-10T06:33:47;101234.06;;;12.55;100.00
63190;BME280;49286;44.460;26.114;2023-05-10T06:36:12;101146.19;;;12.25;100.00
63190;BME280;49286;44.460;26.114;2023-05-10T06:38:38;101137.63;;;12.91;100.00
63190;BME280;49286;44.460;26.114;2023-05-10T06:41:04;101243.16;;;14.25;100.00
63190;BME280;49286;44.460;26.114;2023-05-10T06:43:29;101276.56;;;14.63;100.00
63190;BME280;49286;44.460;26.114;2023-05-10T06:45:55;101268.69;;;13.95;100.00
63190;BME280;49286;44.460;26.114;2023-05-10T06:48:21;101268.72;;;14.12;100.00
63190;BME280;49286;44.460;26.114;2023-05-10T06:50:46;101258.06;;;14.53;100.00
63190;BME280;49286;44.460;26.114;2023-05-10T06:53:11;101243.94;;;14.81;100.00
63190;BME280;49286;44.460;26.114;2023-05-10T06:55:38;101256.25;;;14.83;100.00
63190;BME280;49286;44.460;26.114;2023-05-10T06:58:04;101181.47;;;14.53;100.00
63190;BME280;49286;44.460;26.114;2023-05-10T07:00:29;101257.28;;;14.10;100.00
63190;BME280;49286;44.460;26.114;2023-05-10T07:02:55;101280.09;;;14.32;100.00
63190;BME280;49286;44.460;26.114;2023-05-10T07:05:21;101185.09;;;14.25;100.00
63190;BME280;49286;44.460;26.114;2023-05-10T07:07:46;101246.66;;;14.57;100.00
63190;BME280;49286;44.460;26.114;2023-05-10T07:10:13;101258.09;;;14.60;100.00
63190;BME280;49286;44.460;26.114;2023-05-10T07:12:39;101247.56;;;14.23;100.00
63190;BME280;49286;44.460;26.114;2023-05-10T07:15:05;101176.38;;;13.47;100.00
63190;BME280;49286;44.460;26.114;2023-05-10T07:17:31;101191.31;;;13.62;100.00
63190;BME280;49286;44.460;26.114;2023-05-10T07:19:58;101178.06;;;13.13;100.00
63190;BME280;49286;44.460;26.114;2023-05-10T07:22:23;101164.97;;;13.30;100.00
63190;BME280;49286;44.460;26.114;2023-05-10T07:24:49;101272.19;;;14.32;100.00
63190;BME280;49286;44.460;26.114;2023-05-10T07:27:15;101184.22;;;13.00;100.00
63190;BME280;49286;44.460;26.114;2023-05-10T07:29:40;101272.25;;;13.82;100.00
63190;BME280;49286;44.460;26.114;2023-05-10T07:32:06;101242.34;;;13.93;100.00
63190;BME280;49286;44.460;26.114;2023-05-10T07:34:31;101164.03;;;14.06;100.00
63190;BME280;49286;44.460;26.114;2023-05-10T07:37:00;101165.72;;;12.86;100.00
63190;BME280;49286;44.460;26.114;2023-05-10T07:39:27;101150.88;;;13.80;100.00
63190;BME280;49286;44.460;26.114;2023-05-10T07:41:53;101185.19;;;13.51;100.00
63190;BME280;49286;44.460;26.114;2023-05-10T07:44:18;101234.31;;;14.49;100.00
63190;BME280;49286;44.460;26.114;2023-05-10T07:46:45;101264.28;;;13.74;100.00
63190;BME280;49286;44.460;26.114;2023-05-10T07:49:11;101156.16;;;13.85;100.00
63190;BME280;49286;44.460;26.114;2023-05-10T07:51:36;101283.63;;;14.44;100.00
63190;BME280;49286;44.460;26.114;2023-05-10T07:54:02;101255.31;;;14.95;100.00
63190;BME280;49286;44.460;26.114;2023-05-10T07:56:31;101270.16;;;15.19;100.00
63190;BME280;49286;44.460;26.114;2023-05-10T07:58:58;101257.22;;;14.59;100.00
63190;BME280;49286;44.460;26.114;2023-05-10T08:01:24;101173.53;;;14.70;100.00
63190;BME280;49286;44.460;26.114;2023-05-10T08:03:50;101181.59;;;14.09;100.00
63190;BME280;49286;44.460;26.114;2023-05-10T08:06:17;101228.16;;;14.56;100.00
63190;BME280;49286;44.460;26.114;2023-05-10T08:08:45;101269.41;;;14.91;100.00
63190;BME280;49286;44.460;26.114;2023-05-10T08:11:14;101296.84;;;14.45;99.05
63190;BME280;49286;44.460;26.114;2023-05-10T08:13:40;101192.16;;;14.17;100.00
63190;BME280;49286;44.460;26.114;2023-05-10T08:16:05;101160.38;;;14.52;100.00
63190;BME280;49286;44.460;26.114;2023-05-10T08:18:32;101183.16;;;14.82;100.00
63190;BME280;49286;44.460;26.114;2023-05-10T08:20:57;101180.59;;;14.53;99.38
63190;BME280;49286;44.460;26.114;2023-05-10T08:23:23;101290.66;;;14.55;99.85
63190;BME280;49286;44.460;26.114;2023-05-10T08:25:48;101187.75;;;14.15;97.47
63190;BME280;49286;44.460;26.114;2023-05-10T08:28:14;101199.81;;;14.95;100.00
63190;BME280;49286;44.460;26.114;2023-05-10T08:30:40;101301.13;;;14.97;97.32
63190;BME280;49286;44.460;26.114;2023-05-10T08:33:05;101200.44;;;15.37;100.00
63190;BME280;49286;44.460;26.114;2023-05-10T08:35:31;101206.13;;;14.65;93.29
63190;BME280;49286;44.460;26.114;2023-05-10T08:37:56;101108.34;;;14.68;95.61
63190;BME280;49286;44.460;26.114;2023-05-10T08:40:24;101263.56;;;15.89;97.88
63190;BME280;49286;44.460;26.114;2023-05-10T08:42:59;101183.25;;;14.48;100.00
63190;BME280;49286;44.460;26.114;2023-05-10T08:45:28;101184.34;;;15.63;100.00
63190;BME280;49286;44.460;26.114;2023-05-10T08:47:58;101314.13;;;15.43;89.98
63190;BME280;49286;44.460;26.114;2023-05-10T08:50:25;101126.94;;;14.54;85.47
63190;BME280;49286;44.460;26.114;2023-05-10T08:52:52;101294.97;;;14.95;95.65
63190;BME280;49286;44.460;26.114;2023-05-10T08:55:20;101214.50;;;15.44;93.02
63190;BME280;49286;44.460;26.114;2023-05-10T08:57:46;101265.09;;;16.18;89.85
63190;BME280;49286;44.460;26.114;2023-05-10T09:00:13;101268.97;;;16.68;79.38
63190;BME280;49286;44.460;26.114;2023-05-10T09:02:39;101216.03;;;16.63;78.36
63190;BME280;49286;44.460;26.114;2023-05-10T09:05:05;101107.41;;;14.80;71.41
63190;BME280;49286;44.460;26.114;2023-05-10T09:07:32;101289.69;;;16.32;75.45
63190;BME280;49286;44.460;26.114;2023-05-10T09:09:58;101162.59;;;16.24;89.58
63190;BME280;49286;44.460;26.114;2023-05-10T09:12:24;101273.91;;;16.18;93.18
63190;BME280;49286;44.460;26.114;2023-05-10T09:14:52;101271.84;;;17.22;86.37
63190;BME280;49286;44.460;26.114;2023-05-10T09:17:17;101263.44;;;17.56;81.50
63190;BME280;49286;44.460;26.114;2023-05-10T09:19:44;101172.56;;;17.93;68.00
63190;BME280;49286;44.460;26.114;2023-05-10T09:22:11;101162.75;;;17.98;69.79
63190;BME280;49286;44.460;26.114;2023-05-10T09:24:36;101256.19;;;18.67;65.57
63190;BME280;49286;44.460;26.114;2023-05-10T09:27:07;101131.53;;;17.61;71.50
63190;BME280;49286;44.460;26.114;2023-05-10T09:29:42;101253.63;;;18.16;72.14
63190;BME280;49286;44.460;26.114;2023-05-10T09:32:08;101262.81;;;18.92;70.25
63190;BME280;49286;44.460;26.114;2023-05-10T09:34:33;101221.50;;;18.29;63.52
63190;BME280;49286;44.460;26.114;2023-05-10T09:37:01;101141.72;;;17.33;71.17
63190;BME280;49286;44.460;26.114;2023-05-10T09:39:36;101175.03;;;18.05;70.03
63190;BME280;49286;44.460;26.114;2023-05-10T09:42:04;101255.31;;;17.65;67.29
63190;BME280;49286;44.460;26.114;2023-05-10T09:44:32;101263.28;;;18.20;67.02
63190;BME280;49286;44.460;26.114;2023-05-10T09:46:59;101209.38;;;15.16;75.49
63190;BME280;49286;44.460;26.114;2023-05-10T09:49:24;101139.53;;;15.46;89.48
63190;BME280;49286;44.460;26.114;2023-05-10T09:52:03;101152.47;;;15.83;98.07
63190;BME280;49286;44.460;26.114;2023-05-10T09:54:30;101154.25;;;15.78;100.00
63190;BME280;49286;44.460;26.114;2023-05-10T09:56:56;101245.72;;;14.74;100.00
63190;BME280;49286;44.460;26.114;2023-05-10T09:59:21;101220.88;;;15.09;100.00
63190;BME280;49286;44.460;26.114;2023-05-10T10:01:50;101250.53;;;15.58;100.00
63190;BME280;49286;44.460;26.114;2023-05-10T10:04:16;101241.31;;;14.77;100.00
63190;BME280;49286;44.460;26.114;2023-05-10T10:06:42;101124.56;;;13.37;100.00
63190;BME280;49286;44.460;26.114;2023-05-10T10:09:09;101213.13;;;14.76;100.00
63190;BME280;49286;44.460;26.114;2023-05-10T10:11:36;101138.38;;;14.54;100.00
63190;BME280;49286;44.460;26.114;2023-05-10T10:14:02;101224.38;;;15.14;100.00
63190;BME280;49286;44.460;26.114;2023-05-10T10:16:31;101220.94;;;14.93;100.00
63190;BME280;49286;44.460;26.114;2023-05-10T10:18:56;101196.28;;;14.97;100.00
63190;BME280;49286;44.460;26.114;2023-05-10T10:21:23;101238.63;;;14.87;100.00
63190;BME280;49286;44.460;26.114;2023-05-10T10:23:48;101236.78;;;15.06;100.00
63190;BME280;49286;44.460;26.114;2023-05-10T10:26:15;101191.13;;;14.70;100.00
63190;BME280;49286;44.460;26.114;2023-05-10T10:29:00;101221.16;;;14.30;100.00
63190;BME280;49286;44.460;26.114;2023-05-10T10:31:41;101242.22;;;14.70;99.66
63190;BME280;49286;44.460;26.114;2023-05-10T10:34:26;101227.25;;;14.65;96.48
63190;BME280;49286;44.460;26.114;2023-05-10T10:37:11;101237.75;;;14.83;98.60
63190;BME280;49286;44.460;26.114;2023-05-10T10:39:37;101123.50;;;14.27;95.97
63190;BME280;49286;44.460;26.114;2023-05-10T10:42:04;101166.44;;;14.78;100.00
63190;BME280;49286;44.460;26.114;2023-05-10T10:52:27;101252.50;;;15.27;100.00
63190;BME280;49286;44.460;26.114;2023-05-10T10:55:12;101208.81;;;14.49;100.00
63190;BME280;49286;44.460;26.114;2023-05-10T11:00:29;101225.25;;;15.17;100.00
63190;BME280;49286;44.460;26.114;2023-05-10T11:03:11;101226.97;;;15.23;100.00
63190;BME280;49286;44.460;26.114;2023-05-10T11:05:43;101235.66;;;15.44;98.03
63190;BME280;49286;44.460;26.114;2023-05-10T11:08:28;101225.94;;;15.46;91.87
63190;BME280;49286;44.460;26.114;2023-05-10T11:15:57;101206.91;;;14.91;93.76
63190;BME280;49286;44.460;26.114;2023-05-10T11:20:52;101127.03;;;14.25;93.74
63190;BME280;49286;44.460;26.114;2023-05-10T11:23:17;101220.97;;;14.96;96.95
63190;BME280;49286;44.460;26.114;2023-05-10T11:25:47;101216.44;;;15.14;91.20
63190;BME280;49286;44.460;26.114;2023-05-10T11:28:13;101221.53;;;15.45;98.99
63190;BME280;49286;44.460;26.114;2023-05-10T11:30:39;101196.03;;;15.39;90.69
63190;BME280;49286;44.460;26.114;2023-05-10T11:33:06;101098.53;;;14.94;98.71
63190;BME280;49286;44.460;26.114;2023-05-10T11:35:37;101123.25;;;14.80;91.67
63190;BME280;49286;44.460;26.114;2023-05-10T11:38:05;101113.56;;;14.83;97.17
63190;BME280;49286;44.460;26.114;2023-05-10T11:40:31;101092.41;;;14.88;94.84
63190;BME280;49286;44.460;26.114;2023-05-10T11:42:56;101209.75;;;15.89;98.42
63190;BME280;49286;44.460;26.114;2023-05-10T11:45:23;101118.75;;;14.97;97.20
63190;BME280;49286;44.460;26.114;2023-05-10T11:47:49;101207.97;;;15.89;100.00
63190;BME280;49286;44.460;26.114;2023-05-10T11:50:15;101093.25;;;14.91;90.80
63190;BME280;49286;44.460;26.114;2023-05-10T11:52:40;101188.59;;;15.87;93.12
63190;BME280;49286;44.460;26.114;2023-05-10T11:55:06;101200.59;;;16.22;88.18
63190;BME280;49286;44.460;26.114;2023-05-10T11:57:32;101109.91;;;15.06;91.63
63190;BME280;49286;44.460;26.114;2023-05-10T11:59:57;101195.53;;;16.00;99.49
63190;BME280;49286;44.460;26.114;2023-05-10T12:02:23;101193.69;;;16.09;94.34
63190;BME280;49286;44.460;26.114;2023-05-10T12:04:50;101069.25;;;15.22;93.12
63190;BME280;49286;44.460;26.114;2023-05-10T12:07:16;101183.34;;;15.82;100.00
63190;BME280;49286;44.460;26.114;2023-05-10T12:10:08;101185.56;;;16.24;99.97
63190;BME280;49286;44.460;26.114;2023-05-10T12:12:42;101170.84;;;15.98;100.00
63190;BME280;49286;44.460;26.114;2023-05-10T12:15:24;101181.81;;;15.51;98.21
63190;BME280;49286;44.460;26.114;2023-05-10T12:17:50;101159.09;;;15.25;92.99
63190;BME280;49286;44.460;26.114;2023-05-10T12:20:19;101123.41;;;14.50;96.35
63190;BME280;49286;44.460;26.114;2023-05-10T12:22:50;101166.31;;;15.02;100.00
63190;BME280;49286;44.460;26.114;2023-05-10T12:25:15;101103.69;;;15.13;100.00
63190;BME280;49286;44.460;26.114;2023-05-10T12:27:48;101168.28;;;15.91;100.00
63190;BME280;49286;44.460;26.114;2023-05-10T12:30:24;101053.50;;;15.98;100.00
63190;BME280;49286;44.460;26.114;2023-05-10T12:32:51;101055.91;;;15.36;94.84
63190;BME280;49286;44.460;26.114;2023-05-10T12:35:17;101150.00;;;16.46;100.00
63190;BME280;49286;44.460;26.114;2023-05-10T12:37:45;101160.97;;;16.14;100.00
63190;BME280;49286;44.460;26.114;2023-05-10T12:40:11;101040.66;;;16.35;100.00
63190;BME280;49286;44.460;26.114;2023-05-10T12:42:38;101049.31;;;15.77;87.73
63190;BME280;49286;44.460;26.114;2023-05-10T12:45:04;101139.81;;;16.11;91.84
63190;BME280;49286;44.460;26.114;2023-05-10T12:47:31;101122.69;;;15.59;87.76
63190;BME280;49286;44.460;26.114;2023-05-10T12:49:57;101120.63;;;15.91;84.77
63190;BME280;49286;44.460;26.114;2023-05-10T12:52:23;101032.69;;;15.62;83.13
63190;BME280;49286;44.460;26.114;2023-05-10T12:54:49;101072.03;;;15.98;82.14
63190;BME280;49286;44.460;26.114;2023-05-10T12:57:15;101132.72;;;16.15;84.67
63190;BME280;49286;44.460;26.114;2023-05-10T12:59:40;101034.00;;;15.18;79.03
63190;BME280;49286;44.460;26.114;2023-05-10T13:02:06;101019.44;;;14.67;80.43
63190;BME280;49286;44.460;26.114;2023-05-10T13:04:32;101054.69;;;14.63;80.27
63190;BME280;49286;44.460;26.114;2023-05-10T13:06:57;101126.56;;;15.14;82.20
63190;BME280;49286;44.460;26.114;2023-05-10T13:09:27;101155.84;;;15.96;87.22
63190;BME280;49286;44.460;26.114;2023-05-10T13:11:54;101131.91;;;16.08;85.35
63190;BME280;49286;44.460;26.114;2023-05-10T13:14:20;101008.06;;;15.57;84.72
63190;BME280;49286;44.460;26.114;2023-05-10T13:16:46;101056.19;;;15.93;86.03
63190;BME280;49286;44.460;26.114;2023-05-10T13:19:13;101099.31;;;16.03;89.16